createdAt,value
2023-03-27T00:02:29.135Z,5.02
2023-03-27T00:04:57.536Z,4.97
2023-03-27T00:07:25.822Z,4.94
2023-03-27T00:09:54.093Z,4.90
2023-03-27T00:12:22.691Z,4.86
2023-03-27T00:14:51.083Z,4.84
2023-03-27T00:17:19.865Z,4.82
2023-03-27T00:19:47.935Z,4.79
2023-03-27T00:22:17.140Z,4.76
2023-03-27T00:24:45.915Z,4.72
2023-03-27T00:27:14.626Z,4.70
2023-03-27T00:29:43.117Z,4.69
2023-03-27T00:32:11.506Z,4.68
2023-03-27T00:34:39.582Z,4.66
2023-03-27T00:37:07.650Z,4.64
2023-03-27T00:39:35.733Z,4.62
2023-03-27T00:42:04.061Z,4.58
2023-03-27T00:44:37.408Z,4.53
2023-03-27T00:47:13.056Z,4.49
2023-03-27T00:49:41.555Z,4.49
2023-03-27T00:52:09.937Z,4.47
2023-03-27T00:54:39.113Z,4.44
2023-03-27T00:57:09.850Z,4.42
2023-03-27T00:59:39.891Z,4.39
2023-03-27T01:02:09.099Z,4.37
2023-03-27T01:04:37.679Z,4.32
2023-03-27T01:07:08.755Z,4.27
2023-03-27T01:09:37.930Z,4.26
2023-03-27T01:12:06.410Z,4.24
2023-03-27T01:14:35.525Z,4.23
2023-03-27T01:17:19.768Z,4.22
2023-03-27T01:20:07.379Z,4.21
2023-03-27T01:22:54.597Z,4.19
2023-03-27T01:25:42.223Z,4.17
2023-03-27T01:28:29.843Z,4.14
2023-03-27T01:31:03.979Z,4.13
2023-03-27T01:33:32.347Z,4.12
2023-03-27T01:36:19.577Z,4.11
2023-03-27T01:39:07.587Z,4.09
2023-03-27T01:41:56.237Z,4.05
2023-03-27T01:44:27.484Z,3.97
2023-03-27T01:47:24.967Z,3.95
2023-03-27T01:50:17.569Z,3.94
2023-03-27T01:52:51.375Z,3.89
2023-03-27T01:55:24.269Z,3.90
2023-03-27T01:58:14.210Z,3.90
2023-03-27T02:00:52.140Z,3.89
2023-03-27T02:03:44.058Z,3.87
2023-03-27T02:06:18.402Z,3.87
2023-03-27T02:08:50.532Z,3.85
2023-03-27T02:11:23.752Z,3.83
2023-03-27T02:13:56.021Z,3.82
2023-03-27T02:16:34.099Z,3.81
2023-03-27T02:19:05.067Z,3.79
2023-03-27T02:21:34.278Z,3.77
2023-03-27T02:24:06.369Z,3.74
2023-03-27T02:26:35.336Z,3.72
2023-03-27T02:29:17.839Z,3.69
2023-03-27T02:31:46.470Z,3.70
2023-03-27T02:34:24.233Z,3.69
2023-03-27T02:37:02.505Z,3.67
2023-03-27T02:40:04.698Z,3.65
2023-03-27T02:42:34.207Z,3.64
2023-03-27T02:45:16.820Z,3.62
2023-03-27T02:47:48.234Z,3.58
2023-03-27T02:50:19.558Z,3.55
2023-03-27T02:52:51.964Z,3.50
2023-03-27T02:55:29.411Z,3.46
2023-03-27T02:58:00.230Z,3.41
2023-03-27T03:00:59.230Z,3.38
2023-03-27T03:04:00.868Z,3.37
2023-03-27T03:06:54.426Z,3.38
2023-03-27T03:09:24.927Z,3.40
2023-03-27T03:11:54.118Z,3.37
2023-03-27T03:14:24.576Z,3.33
2023-03-27T03:16:53.267Z,3.29
2023-03-27T03:19:24.332Z,3.26
2023-03-27T03:21:52.806Z,3.22
2023-03-27T03:24:22.626Z,3.21
2023-03-27T03:26:51.031Z,3.21
2023-03-27T03:29:20.002Z,3.22
2023-03-27T03:32:02.001Z,3.19
2023-03-27T03:34:30.595Z,3.18
2023-03-27T03:36:59.696Z,3.17
2023-03-27T03:39:31.249Z,3.16
2023-03-27T03:41:59.628Z,3.17
2023-03-27T03:44:27.812Z,3.20
2023-03-27T03:46:56.729Z,3.21
2023-03-27T03:49:25.092Z,3.21
2023-03-27T03:52:03.905Z,3.20
2023-03-27T03:54:44.941Z,3.19
2023-03-27T03:57:15.281Z,3.18
2023-03-27T03:59:44.214Z,3.21
2023-03-27T04:02:45.740Z,3.27
2023-03-27T04:05:16.282Z,3.33
2023-03-27T04:07:45.900Z,3.38
2023-03-27T04:10:23.183Z,3.40
2023-03-27T04:12:52.408Z,3.42
2023-03-27T04:15:43.517Z,3.39
2023-03-27T04:18:35.462Z,3.40
2023-03-27T04:21:18.532Z,3.42
2023-03-27T04:23:48.445Z,3.44
2023-03-27T04:26:26.726Z,3.49
2023-03-27T04:29:30.654Z,3.52
2023-03-27T04:32:02.313Z,3.56
2023-03-27T04:34:42.469Z,3.63
2023-03-27T04:37:24.127Z,3.69
2023-03-27T04:40:05.326Z,3.75
2023-03-27T04:42:33.611Z,3.78
2023-03-27T04:45:04.452Z,3.82
2023-03-27T04:47:38.045Z,3.84
2023-03-27T04:50:07.903Z,3.87
2023-03-27T04:52:36.873Z,3.93
2023-03-27T04:55:06.240Z,4.00
2023-03-27T04:57:34.767Z,4.06
2023-03-27T05:00:14.544Z,4.10
2023-03-27T05:02:49.159Z,4.13
2023-03-27T05:05:25.920Z,4.17
2023-03-27T05:07:54.810Z,4.23
2023-03-27T05:10:25.141Z,4.28
2023-03-27T05:12:55.188Z,4.29
2023-03-27T05:15:25.019Z,4.31
2023-03-27T05:17:55.183Z,4.34
2023-03-27T05:20:25.744Z,4.37
2023-03-27T05:22:55.062Z,4.42
2023-03-27T05:25:31.107Z,4.47
2023-03-27T05:28:00.766Z,4.53
2023-03-27T05:30:34.659Z,4.60
2023-03-27T05:33:16.714Z,4.68
2023-03-27T05:35:48.648Z,4.77
2023-03-27T05:38:17.181Z,4.86
2023-03-27T05:41:04.485Z,4.95
2023-03-27T05:43:35.943Z,5.05
2023-03-27T05:46:05.192Z,5.15
2023-03-27T05:48:33.851Z,5.25
2023-03-27T05:51:03.246Z,5.36
2023-03-27T05:53:31.940Z,5.49
2023-03-27T05:56:20.786Z,5.65
2023-03-27T05:58:57.662Z,5.83
2023-03-27T06:01:27.068Z,5.99
2023-03-27T06:03:57.073Z,6.14
2023-03-27T06:06:30.077Z,6.30
2023-03-27T06:08:59.687Z,6.43
2023-03-27T06:11:28.585Z,6.55
2023-03-27T06:13:58.727Z,6.69
2023-03-27T06:16:43.176Z,6.84
2023-03-27T06:19:31.858Z,7.00
2023-03-27T06:22:00.194Z,7.17
2023-03-27T06:24:28.582Z,7.33
2023-03-27T06:26:58.398Z,7.52
2023-03-27T06:29:30.671Z,7.68
2023-03-27T06:32:01.739Z,7.80
2023-03-27T06:37:52.308Z,8.08
2023-03-27T06:40:25.133Z,8.24
2023-03-27T06:42:58.800Z,8.42
2023-03-27T06:45:37.826Z,8.61
2023-03-27T06:48:25.420Z,8.79
2023-03-27T06:50:57.988Z,8.95
2023-03-27T06:53:28.333Z,9.10
2023-03-27T06:55:58.354Z,9.24
2023-03-27T06:58:28.302Z,9.38
2023-03-27T07:00:57.207Z,9.54
2023-03-27T07:03:51.474Z,9.69
2023-03-27T07:06:40.116Z,9.81
2023-03-27T07:09:11.266Z,9.93
2023-03-27T07:11:39.745Z,10.00
2023-03-27T07:14:10.892Z,10.09
2023-03-27T07:16:39.342Z,10.16
2023-03-27T07:19:08.146Z,10.21
2023-03-27T07:21:39.029Z,10.25
2023-03-27T07:24:07.810Z,10.36
2023-03-27T07:26:38.242Z,10.50
2023-03-27T07:29:22.797Z,10.69
2023-03-27T07:31:57.876Z,10.85
2023-03-27T07:34:50.566Z,11.06
2023-03-27T07:37:22.987Z,11.22
2023-03-27T07:40:13.494Z,11.42
2023-03-27T07:42:45.356Z,11.57
2023-03-27T07:45:20.856Z,11.72
2023-03-27T07:47:50.818Z,11.83
2023-03-27T07:50:20.580Z,11.94
2023-03-27T07:52:49.375Z,12.03
2023-03-27T07:55:19.205Z,12.09
2023-03-27T07:58:01.450Z,12.13
2023-03-27T08:00:35.628Z,12.17
2023-03-27T08:03:11.639Z,12.24
2023-03-27T08:05:45.064Z,12.24
2023-03-27T08:08:16.319Z,12.26
2023-03-27T08:10:55.009Z,12.34
2023-03-27T08:13:24.005Z,12.48
2023-03-27T08:15:53.134Z,12.57
2023-03-27T08:18:29.912Z,12.71
2023-03-27T08:21:03.513Z,12.87
2023-03-27T08:23:33.931Z,13.05
2023-03-27T08:26:21.058Z,13.29
2023-03-27T08:29:10.432Z,13.56
2023-03-27T08:31:39.622Z,13.86
2023-03-27T08:34:09.209Z,14.26
2023-03-27T08:36:50.206Z,14.68
2023-03-27T08:39:18.702Z,15.08
2023-03-27T08:42:19.310Z,15.45
2023-03-27T08:44:55.116Z,15.71
2023-03-27T08:47:35.872Z,15.95
2023-03-27T08:50:36.559Z,16.15
2023-03-27T08:53:22.341Z,16.37
2023-03-27T08:55:50.719Z,16.52
2023-03-27T08:58:23.506Z,16.68
2023-03-27T09:01:03.241Z,16.81
2023-03-27T09:03:36.155Z,16.86
2023-03-27T09:06:18.739Z,16.87
2023-03-27T09:09:07.419Z,16.89
2023-03-27T09:11:41.707Z,16.92
2023-03-27T09:14:36.490Z,16.91
2023-03-27T09:17:25.369Z,16.91
2023-03-27T09:20:09.008Z,16.86
2023-03-27T09:22:44.416Z,16.78
2023-03-27T09:25:42.382Z,16.68
2023-03-27T09:28:51.699Z,16.58
2023-03-27T09:31:27.839Z,16.49
2023-03-27T09:33:58.088Z,16.49
2023-03-27T09:36:26.880Z,16.46
2023-03-27T09:39:02.845Z,16.40
2023-03-27T09:41:33.833Z,16.38
2023-03-27T09:44:14.238Z,16.30
2023-03-27T09:46:46.671Z,16.17
2023-03-27T09:49:17.441Z,16.09
2023-03-27T09:51:52.095Z,16.00
2023-03-27T09:54:51.890Z,15.91
2023-03-27T09:57:21.296Z,15.83
2023-03-27T09:59:57.346Z,15.70
2023-03-27T10:02:29.820Z,15.54
2023-03-27T10:05:00.312Z,15.43
2023-03-27T10:07:33.762Z,15.37
2023-03-27T10:10:21.281Z,15.33
2023-03-27T10:13:11.314Z,15.34
2023-03-27T10:15:44.563Z,15.31
2023-03-27T10:18:20.822Z,15.29
2023-03-27T10:20:58.752Z,15.28
2023-03-27T10:23:30.007Z,15.26
2023-03-27T10:26:04.074Z,15.21
2023-03-27T10:28:45.690Z,15.17
2023-03-27T10:31:24.665Z,15.14
2023-03-27T10:33:58.204Z,15.13
2023-03-27T10:36:47.161Z,15.13
2023-03-27T10:39:17.695Z,15.12
2023-03-27T10:42:16.825Z,15.11
2023-03-27T10:44:49.658Z,15.07
2023-03-27T10:47:22.897Z,15.01
2023-03-27T10:50:01.978Z,14.99
2023-03-27T10:52:45.948Z,14.97
2023-03-27T10:55:20.653Z,14.93
2023-03-27T10:57:53.641Z,14.93
2023-03-27T11:00:33.279Z,14.93
2023-03-27T11:03:11.534Z,14.92
2023-03-27T11:05:42.135Z,14.92
2023-03-27T11:08:23.917Z,14.92
2023-03-27T11:10:52.902Z,14.98
2023-03-27T11:13:40.212Z,15.04
2023-03-27T11:16:15.368Z,15.09
2023-03-27T11:19:59.905Z,15.14
2023-03-27T11:22:55.700Z,15.18
2023-03-27T11:25:51.813Z,15.20
2023-03-27T11:28:43.673Z,15.24
2023-03-27T11:31:32.523Z,15.26
2023-03-27T11:34:07.608Z,15.24
2023-03-27T11:36:51.487Z,15.24
2023-03-27T11:39:36.718Z,15.23
2023-03-27T11:42:10.628Z,15.21
2023-03-27T11:44:39.135Z,15.18
2023-03-27T11:47:19.747Z,15.15
2023-03-27T11:49:57.484Z,15.12
2023-03-27T11:52:35.069Z,15.12
2023-03-27T11:55:10.221Z,15.14
2023-03-27T11:58:04.481Z,15.12
2023-03-27T12:00:55.358Z,15.10
2023-03-27T12:03:52.930Z,15.09
2023-03-27T12:06:34.524Z,15.07
2023-03-27T12:09:18.043Z,15.08
2023-03-27T12:12:06.795Z,15.06
2023-03-27T12:14:41.171Z,14.98
2023-03-27T12:17:33.330Z,14.88
2023-03-27T12:20:16.363Z,14.80
2023-03-27T12:23:14.022Z,14.72
2023-03-27T12:26:27.121Z,14.63
2023-03-27T12:29:24.485Z,14.55
2023-03-27T12:32:15.710Z,14.51
2023-03-27T12:34:50.327Z,14.48
2023-03-27T12:37:22.458Z,14.44
2023-03-27T12:39:56.481Z,14.38
2023-03-27T12:42:44.843Z,14.35
2023-03-27T12:45:22.564Z,14.38
2023-03-27T12:48:16.283Z,14.36
2023-03-27T12:50:56.727Z,14.32
2023-03-27T12:53:25.829Z,14.29
2023-03-27T12:56:14.988Z,14.30
2023-03-27T12:58:45.250Z,14.35
2023-03-27T13:01:29.578Z,14.42
2023-03-27T13:04:08.599Z,14.45
2023-03-27T13:06:49.057Z,14.46
2023-03-27T13:09:20.508Z,14.47
2023-03-27T13:12:05.264Z,14.52
2023-03-27T13:15:13.154Z,14.54
2023-03-27T13:18:00.197Z,14.59
2023-03-27T13:20:47.127Z,14.61
2023-03-27T13:23:26.436Z,14.62
2023-03-27T13:26:10.707Z,14.65
2023-03-27T13:28:48.773Z,14.69
2023-03-27T13:31:51.520Z,14.76
2023-03-27T13:34:38.582Z,14.80
2023-03-27T13:37:09.886Z,14.83
2023-03-27T13:39:59.412Z,14.85
2023-03-27T13:42:34.713Z,14.93
2023-03-27T13:45:07.273Z,14.99
2023-03-27T13:47:50.330Z,15.03
2023-03-27T13:50:23.893Z,15.05
2023-03-27T13:53:11.033Z,15.02
2023-03-27T13:56:21.134Z,15.07
2023-03-27T13:59:28.113Z,15.10
2023-03-27T14:01:57.245Z,15.19
2023-03-27T14:04:26.099Z,15.27
2023-03-27T14:07:04.303Z,15.35
2023-03-27T14:09:36.169Z,15.42
2023-03-27T14:12:20.026Z,15.44
2023-03-27T14:15:23.005Z,15.48
2023-03-27T14:18:32.400Z,15.48
2023-03-27T14:21:02.312Z,15.48
2023-03-27T14:23:49.745Z,15.47
2023-03-27T14:26:29.788Z,15.43
2023-03-27T14:29:02.351Z,15.38
2023-03-27T14:31:44.511Z,15.32
2023-03-27T14:34:25.081Z,15.28
2023-03-27T14:37:34.657Z,15.26
2023-03-27T14:40:31.993Z,15.27
2023-03-27T14:43:03.039Z,15.26
2023-03-27T14:45:36.972Z,15.27
2023-03-27T14:48:08.872Z,15.28
2023-03-27T14:50:46.677Z,15.25
2023-03-27T14:53:18.586Z,15.26
2023-03-27T14:56:29.750Z,15.29
2023-03-27T14:58:59.668Z,15.32
2023-03-27T15:01:35.355Z,15.37
2023-03-27T15:04:07.434Z,15.40
2023-03-27T15:06:37.820Z,15.38
2023-03-27T15:09:15.907Z,15.36
2023-03-27T15:12:04.666Z,15.30
2023-03-27T15:14:34.073Z,15.26
2023-03-27T15:17:07.055Z,15.22
2023-03-27T15:19:45.751Z,15.20
2023-03-27T15:22:35.766Z,15.20
2023-03-27T15:25:21.638Z,15.16
2023-03-27T15:27:53.076Z,15.16
2023-03-27T15:30:30.392Z,15.18
2023-03-27T15:33:04.380Z,15.21
2023-03-27T15:35:37.830Z,15.22
2023-03-27T15:38:07.919Z,15.20
2023-03-27T15:40:38.128Z,15.17
2023-03-27T15:43:07.449Z,15.15
2023-03-27T15:46:02.893Z,15.12
2023-03-27T15:48:33.175Z,15.08
2023-03-27T15:51:02.686Z,15.07
2023-03-27T15:53:34.037Z,15.07
2023-03-27T15:56:04.053Z,15.07
2023-03-27T15:58:38.988Z,15.07
2023-03-27T16:01:18.721Z,15.06
2023-03-27T16:03:50.734Z,15.03
2023-03-27T16:06:24.304Z,15.00
2023-03-27T16:08:53.202Z,14.98
2023-03-27T16:11:40.213Z,14.94
2023-03-27T16:14:28.239Z,14.88
2023-03-27T16:17:11.870Z,14.79
2023-03-27T16:19:45.223Z,14.65
2023-03-27T16:22:13.452Z,14.54
2023-03-27T16:24:42.037Z,14.46
2023-03-27T16:27:11.462Z,14.38
2023-03-27T16:29:39.630Z,14.32
2023-03-27T16:32:33.224Z,14.24
2023-03-27T16:35:01.576Z,14.15
2023-03-27T16:37:29.946Z,14.08
2023-03-27T16:40:18.832Z,14.00
2023-03-27T16:43:10.574Z,13.92
2023-03-27T16:45:38.915Z,13.91
2023-03-27T16:48:08.602Z,13.89
2023-03-27T16:50:37.109Z,13.88
2023-03-27T16:53:05.186Z,13.86
2023-03-27T16:55:33.463Z,13.79
2023-03-27T16:58:02.667Z,13.77
2023-03-27T17:00:31.761Z,13.74
2023-03-27T17:03:00.065Z,13.68
2023-03-27T17:05:34.206Z,13.63
2023-03-27T17:08:02.642Z,13.58
2023-03-27T17:10:31.552Z,13.54
2023-03-27T17:12:59.720Z,13.53
2023-03-27T17:15:28.209Z,13.53
2023-03-27T17:17:56.767Z,13.51
2023-03-27T17:20:25.078Z,13.50
2023-03-27T17:22:53.360Z,13.46
2023-03-27T17:25:21.640Z,13.45
2023-03-27T17:27:50.649Z,13.44
2023-03-27T17:30:30.480Z,13.42
2023-03-27T17:33:05.859Z,13.39
2023-03-27T17:35:34.669Z,13.38
2023-03-27T17:38:03.728Z,13.36
2023-03-27T17:40:31.808Z,13.34
2023-03-27T17:43:00.140Z,13.31
2023-03-27T17:48:21.311Z,13.26
2023-03-27T17:51:01.256Z,13.25
2023-03-27T17:53:37.215Z,13.21
2023-03-27T17:56:06.060Z,13.20
2023-03-27T17:58:34.619Z,13.18
2023-03-27T18:01:13.330Z,13.15
2023-03-27T18:03:41.694Z,13.10
2023-03-27T18:06:10.092Z,13.06
2023-03-27T18:08:38.471Z,13.02
2023-03-27T18:11:07.750Z,12.96
2023-03-27T18:13:36.969Z,12.91
2023-03-27T18:16:08.779Z,12.86
2023-03-27T18:18:39.007Z,12.81
2023-03-27T18:21:09.267Z,12.77
2023-03-27T18:23:46.752Z,12.72
2023-03-27T18:26:15.876Z,12.68
2023-03-27T18:28:44.269Z,12.64
2023-03-27T18:31:13.273Z,12.60
2023-03-27T18:33:41.553Z,12.57
2023-03-27T18:36:10.909Z,12.53
2023-03-27T18:38:40.925Z,12.47
2023-03-27T18:41:09.361Z,12.41
2023-03-27T18:43:37.537Z,12.36
2023-03-27T18:46:07.235Z,12.32
2023-03-27T18:48:36.051Z,12.26
2023-03-27T18:51:05.827Z,12.21
2023-03-27T18:53:34.041Z,12.15
2023-03-27T18:56:03.651Z,12.07
2023-03-27T18:58:31.942Z,11.98
2023-03-27T19:01:01.010Z,11.88
2023-03-27T19:03:35.272Z,11.79
2023-03-27T19:06:04.902Z,11.68
2023-03-27T19:08:33.673Z,11.61
2023-03-27T19:11:01.963Z,11.54
2023-03-27T19:13:49.154Z,11.49
2023-03-27T19:16:47.139Z,11.40
2023-03-27T19:19:18.808Z,11.35
2023-03-27T19:22:08.562Z,11.30
2023-03-27T19:24:42.154Z,11.26
2023-03-27T19:27:23.018Z,11.20
2023-03-27T19:29:53.375Z,11.14
2023-03-27T19:32:21.755Z,11.09
2023-03-27T19:34:50.630Z,11.01
2023-03-27T19:37:19.008Z,10.94
2023-03-27T19:39:47.405Z,10.89
2023-03-27T19:42:15.573Z,10.86
2023-03-27T19:44:44.274Z,10.84
2023-03-27T19:47:12.692Z,10.77
2023-03-27T19:49:42.774Z,10.71
2023-03-27T19:52:33.414Z,10.63
2023-03-27T19:55:05.023Z,10.61
2023-03-27T19:57:33.622Z,10.58
2023-03-27T20:00:01.693Z,10.53
2023-03-27T20:02:30.721Z,10.51
2023-03-27T20:04:59.273Z,10.46
2023-03-27T20:07:27.558Z,10.43
2023-03-27T20:09:59.851Z,10.34
2023-03-27T20:12:28.419Z,10.27
2023-03-27T20:15:09.915Z,10.22
2023-03-27T20:17:43.185Z,10.16
2023-03-27T20:20:11.703Z,10.10
2023-03-27T20:22:50.273Z,10.06
2023-03-27T20:25:25.040Z,10.00
2023-03-27T20:27:53.146Z,9.97
2023-03-27T20:30:21.697Z,9.94
2023-03-27T20:32:51.051Z,9.92
2023-03-27T20:35:24.258Z,9.90
2023-03-27T20:37:56.391Z,9.89
2023-03-27T20:40:26.083Z,9.89
2023-03-27T20:43:06.044Z,9.89
2023-03-27T20:45:34.827Z,9.89
2023-03-27T20:48:03.541Z,9.88
2023-03-27T20:50:35.493Z,9.87
2023-03-27T20:53:04.685Z,9.85
2023-03-27T20:55:41.339Z,9.84
2023-03-27T20:58:13.845Z,9.82
2023-03-27T21:00:43.922Z,9.79
2023-03-27T21:03:12.287Z,9.75
2023-03-27T21:05:41.459Z,9.69
2023-03-27T21:08:09.634Z,9.67
2023-03-27T21:10:38.954Z,9.66
2023-03-27T21:13:07.430Z,9.66
2023-03-27T21:15:35.815Z,9.67
2023-03-27T21:18:04.951Z,9.64
2023-03-27T21:20:35.337Z,9.62
2023-03-27T21:23:03.720Z,9.61
2023-03-27T21:25:33.943Z,9.58
2023-03-27T21:28:06.082Z,9.59
2023-03-27T21:30:46.459Z,9.62
2023-03-27T21:33:17.339Z,9.67
2023-03-27T21:35:49.300Z,9.70
2023-03-27T21:38:18.797Z,9.73
2023-03-27T21:40:47.458Z,9.77
2023-03-27T21:43:15.872Z,9.81
2023-03-27T21:45:46.942Z,9.87
2023-03-27T21:48:15.757Z,9.90
2023-03-27T21:50:44.402Z,9.93
2023-03-27T21:53:13.816Z,9.98
2023-03-27T21:55:42.692Z,10.00
2023-03-27T21:58:11.286Z,9.97
2023-03-27T22:00:41.102Z,9.94
2023-03-27T22:03:09.491Z,9.93
2023-03-27T22:05:38.486Z,9.91
2023-03-27T22:08:07.380Z,9.89
2023-03-27T22:10:43.302Z,9.89
2023-03-27T22:13:11.922Z,9.93
2023-03-27T22:15:41.280Z,9.95
2023-03-27T22:18:09.765Z,9.98
2023-03-27T22:20:38.302Z,9.99
2023-03-27T22:23:06.585Z,10.01
2023-03-27T22:25:35.297Z,10.00
2023-03-27T22:28:03.468Z,10.02
2023-03-27T22:30:31.939Z,10.05
2023-03-27T22:33:00.617Z,10.07
2023-03-27T22:35:29.478Z,10.01
2023-03-27T22:37:57.807Z,9.99
2023-03-27T22:40:25.988Z,9.97
2023-03-27T22:42:57.138Z,9.95
2023-03-27T22:45:25.626Z,9.93
2023-03-27T22:47:53.991Z,9.89
2023-03-27T22:50:22.397Z,9.86
2023-03-27T22:52:51.092Z,9.86
2023-03-27T22:55:19.261Z,9.84
2023-03-27T22:57:47.337Z,9.82
2023-03-27T23:00:16.040Z,9.82
2023-03-27T23:02:44.276Z,9.81
2023-03-27T23:05:12.698Z,9.80
2023-03-27T23:07:41.289Z,9.80
2023-03-27T23:10:13.147Z,9.75
2023-03-27T23:12:42.152Z,9.68
2023-03-27T23:15:11.328Z,9.66
2023-03-27T23:17:39.763Z,9.64
2023-03-27T23:20:08.531Z,9.62
2023-03-27T23:22:37.551Z,9.63
2023-03-27T23:25:08.583Z,9.60
2023-03-27T23:27:36.958Z,9.58
2023-03-27T23:30:06.188Z,9.55
2023-03-27T23:32:38.189Z,9.54
2023-03-27T23:35:07.650Z,9.52
2023-03-27T23:37:36.227Z,9.51
2023-03-27T23:40:04.842Z,9.51
2023-03-27T23:42:33.097Z,9.51
2023-03-27T23:45:01.280Z,9.50
2023-03-27T23:47:30.184Z,9.49
2023-03-27T23:49:58.654Z,9.43
2023-03-27T23:52:29.702Z,9.38
2023-03-27T23:54:57.786Z,9.35
2023-03-27T23:57:29.024Z,9.29
2023-03-27T23:59:57.307Z,9.22
